Time;durP1;ratioP1;P1;durP2;ratioP2;P2;SDS_P1;SDS_P2;PMS_P1;PMS_P2;Temp;Humidity;BMP_temperature;BMP_pressure;BME280_temperature;BME280_humidity;BME280_pressure;Samples;Min_cycle;Max_cycle;Signal;HPM_P1;HPM_P2
2023/03/27 00:00:47;;;;;;;15.55;1.90;;;2.70;99.90;;;;;;6178440;23;20017;-86
2023/03/27 00:03:14;;;;;;;9.15;1.92;;;2.70;99.90;;;;;;6176418;23;20068;-85
2023/03/27 00:05:40;;;;;;;8.48;1.70;;;2.60;99.90;;;;;;6180251;23;20009;-86
2023/03/27 00:08:09;;;;;;;5.95;1.48;;;2.70;99.90;;;;;;6178358;23;20521;-86
2023/03/27 00:10:36;;;;;;;7.60;2.45;;;2.60;99.90;;;;;;6179776;23;20051;-86
2023/03/27 00:13:02;;;;;;;9.07;1.88;;;2.60;99.90;;;;;;6177294;23;20017;-86
2023/03/27 00:15:29;;;;;;;4.70;1.48;;;2.60;99.90;;;;;;6178430;23;20096;-86
2023/03/27 00:17:57;;;;;;;6.45;1.48;;;2.60;99.90;;;;;;6178837;23;20414;-86
2023/03/27 00:20:25;;;;;;;7.20;1.40;;;2.60;99.90;;;;;;6177463;23;20016;-86
2023/03/27 00:22:55;;;;;;;4.97;1.45;;;2.60;99.90;;;;;;6180355;23;20016;-86
2023/03/27 00:25:22;;;;;;;6.25;1.88;;;2.60;99.90;;;;;;6176912;23;20021;-87
2023/03/27 00:27:48;;;;;;;12.15;1.60;;;2.60;99.90;;;;;;6177679;23;20342;-86
2023/03/27 00:30:14;;;;;;;5.88;1.15;;;2.60;99.90;;;;;;6177033;23;20078;-87
2023/03/27 00:32:41;;;;;;;9.50;2.47;;;2.70;99.90;;;;;;6180051;23;20044;-86
2023/03/27 00:35:08;;;;;;;9.95;1.55;;;2.70;99.90;;;;;;6177474;23;20059;-86
2023/03/27 00:37:37;;;;;;;8.30;1.70;;;2.60;99.90;;;;;;6177033;23;20045;-86
2023/03/27 00:40:07;;;;;;;7.82;1.75;;;2.60;99.90;;;;;;6178920;23;20013;-85
2023/03/27 00:42:33;;;;;;;4.47;1.08;;;2.60;99.90;;;;;;6177623;23;20017;-87
2023/03/27 00:45:01;;;;;;;8.63;1.52;;;2.60;99.90;;;;;;6177760;23;20024;-86
2023/03/27 00:47:32;;;;;;;9.38;2.03;;;2.60;99.90;;;;;;6177490;23;20090;-86
2023/03/27 00:50:09;;;;;;;8.10;1.45;;;2.60;99.90;;;;;;6177210;23;20088;-86
2023/03/27 00:52:39;;;;;;;10.10;1.85;;;2.50;99.90;;;;;;6177788;23;20024;-86
2023/03/27 00:55:13;;;;;;;7.15;1.65;;;2.50;99.90;;;;;;6152152;23;20025;-87
2023/03/27 00:57:41;;;;;;;8.40;1.77;;;2.50;99.90;;;;;;6180156;23;20055;-86
2023/03/27 01:00:12;;;;;;;6.68;1.83;;;2.40;99.90;;;;;;6177434;23;20009;-86
2023/03/27 01:02:40;;;;;;;6.20;1.40;;;2.40;99.90;;;;;;6177996;23;20025;-86
2023/03/27 01:05:08;;;;;;;6.68;1.60;;;2.40;99.90;;;;;;6176885;23;20023;-85
2023/03/27 01:07:35;;;;;;;5.97;1.38;;;2.40;99.90;;;;;;6179314;23;20036;-86
2023/03/27 01:10:00;;;;;;;5.32;1.50;;;2.30;99.90;;;;;;6151890;23;20009;-86
2023/03/27 01:12:45;;;;;;;6.55;1.58;;;2.30;99.90;;;;;;6177496;23;20690;-86
2023/03/27 01:15:27;;;;;;;7.32;1.55;;;2.20;99.90;;;;;;6178633;23;20051;-86
2023/03/27 01:17:52;;;;;;;;;;;2.20;99.90;;;;;;6177619;23;20048;-86
2023/03/27 01:20:51;;;;;;;11.65;2.60;;;2.20;99.90;;;;;;6152065;23;19923;-86
2023/03/27 01:23:38;;;;;;;8.25;1.50;;;2.10;99.90;;;;;;6175595;23;20017;-86
2023/03/27 01:26:15;;;;;;;6.93;2.08;;;2.10;99.90;;;;;;6177124;23;20020;-87
2023/03/27 01:28:46;;;;;;;5.40;1.23;;;2.10;99.90;;;;;;6179372;23;20381;-87
2023/03/27 01:31:32;;;;;;;;;;;2.10;99.90;;;;;;6152476;23;20120;-86
2023/03/27 01:34:02;;;;;;;4.32;1.20;;;2.10;99.90;;;;;;6179203;23;19923;-86
2023/03/27 01:36:55;;;;;;;4.05;1.23;;;2.10;99.90;;;;;;6178934;23;20084;-87
2023/03/27 01:39:33;;;;;;;3.80;1.00;;;2.10;99.90;;;;;;6176919;23;20021;-87
2023/03/27 01:42:20;;;;;;;10.27;3.00;;;2.10;99.90;;;;;;6179245;23;20024;-87
2023/03/27 01:44:52;;;;;;;4.05;1.33;;;2.10;99.90;;;;;;6177676;23;20071;-87
2023/03/27 01:47:33;;;;;;;7.28;1.20;;;2.10;99.90;;;;;;6176063;23;20446;-87
2023/03/27 01:50:38;;;;;;;5.82;1.38;;;2.10;99.90;;;;;;6177401;23;20017;-87
2023/03/27 01:53:11;;;;;;;8.90;2.22;;;2.10;99.90;;;;;;6115556;23;20014;-87
2023/03/27 01:55:42;;;;;;;7.50;1.42;;;2.10;99.90;;;;;;6116267;23;20021;-86
2023/03/27 01:58:14;;;;;;;5.38;1.52;;;2.10;99.90;;;;;;6091341;23;20161;-87
2023/03/27 02:00:44;;;;;;;6.93;1.00;;;2.10;99.90;;;;;;6115963;23;20018;-87
2023/03/27 02:03:18;;;;;;;5.35;1.00;;;2.10;99.90;;;;;;6091132;23;20021;-86
2023/03/27 02:05:49;;;;;;;6.47;1.73;;;2.10;99.90;;;;;;6116919;23;20053;-87
2023/03/27 02:08:36;;;;;;;;;;;2.10;99.90;;;;;;6090060;23;20057;-87
2023/03/27 02:11:03;;;;;;;3.22;0.80;;;2.10;99.90;;;;;;6091596;23;19919;-87
2023/03/27 02:13:40;;;;;;;4.13;0.70;;;2.10;99.90;;;;;;6115519;23;20014;-87
2023/03/27 02:16:10;;;;;;;7.68;1.40;;;2.10;99.90;;;;;;6090339;23;20022;-87
2023/03/27 02:18:46;;;;;;;5.50;1.70;;;2.10;99.90;;;;;;6091041;23;20020;-87
2023/03/27 02:21:13;;;;;;;4.53;1.13;;;2.10;99.90;;;;;;6115678;23;20044;-87
2023/03/27 02:23:39;;;;;;;4.88;1.30;;;2.10;99.90;;;;;;6091961;23;20093;-87
2023/03/27 02:26:05;;;;;;;7.82;1.55;;;2.10;99.90;;;;;;6090963;23;20332;-86
2023/03/27 02:28:32;;;;;;;4.32;1.10;;;2.00;99.90;;;;;;6127158;23;20028;-87
2023/03/27 02:31:35;;;;;;;8.25;1.15;;;2.00;99.90;;;;;;6176961;23;20078;-86
2023/03/27 02:34:25;;;;;;;6.20;1.27;;;2.00;99.90;;;;;;6178426;23;20092;-86
2023/03/27 02:37:05;;;;;;;5.47;1.25;;;2.10;99.90;;;;;;6178554;23;20013;-87
2023/03/27 02:39:42;;;;;;;9.15;1.88;;;2.10;99.90;;;;;;6176431;23;20085;-86
2023/03/27 02:42:32;;;;;;;3.55;1.55;;;2.10;99.90;;;;;;6177348;23;20013;-86
2023/03/27 02:45:26;;;;;;;5.63;1.10;;;2.10;99.90;;;;;;6178148;23;20032;-88
2023/03/27 02:48:22;;;;;;;5.38;0.98;;;2.20;99.90;;;;;;6152072;23;20029;-86
2023/03/27 02:51:09;;;;;;;4.95;1.40;;;2.20;99.90;;;;;;6178363;23;20059;-85
2023/03/27 02:53:44;;;;;;;1.10;0.55;;;2.30;99.90;;;;;;6178119;23;20020;-88
2023/03/27 02:56:11;;;;;;;5.45;1.00;;;2.40;99.90;;;;;;6151482;23;20067;-85
2023/03/27 02:58:52;;;;;;;11.05;1.65;;;2.50;99.90;;;;;;6178985;23;20016;-85
2023/03/27 03:01:20;;;;;;;4.50;1.00;;;2.60;99.90;;;;;;6151161;23;20025;-86
2023/03/27 03:04:06;;;;;;;2.83;1.15;;;2.60;99.90;;;;;;6178648;23;20420;-85
2023/03/27 03:06:32;;;;;;;5.13;1.42;;;2.60;99.90;;;;;;6151084;23;20024;-85
2023/03/27 03:09:00;;;;;;;8.82;1.35;;;2.50;99.90;;;;;;6177447;23;20501;-87
2023/03/27 03:11:27;;;;;;;4.07;1.10;;;2.50;99.90;;;;;;6151735;23;20017;-86
2023/03/27 03:13:54;;;;;;;6.07;1.00;;;2.40;99.90;;;;;;6152421;23;20020;-86
2023/03/27 03:16:19;;;;;;;8.93;1.42;;;2.40;99.90;;;;;;6150827;23;20023;-86
2023/03/27 03:18:45;;;;;;;8.00;2.15;;;2.40;99.90;;;;;;6151602;23;20409;-86
2023/03/27 03:21:11;;;;;;;3.95;1.10;;;2.40;99.90;;;;;;6150677;23;20027;-86
2023/03/27 03:23:37;;;;;;;5.70;1.45;;;2.40;99.90;;;;;;6152110;23;20024;-86
2023/03/27 03:26:05;;;;;;;7.78;1.15;;;2.40;99.90;;;;;;6126928;23;20016;-86
2023/03/27 03:28:33;;;;;;;6.57;1.00;;;2.30;99.90;;;;;;6178450;23;20067;-86
2023/03/27 03:31:01;;;;;;;5.60;1.00;;;2.30;99.90;;;;;;6178313;23;20395;-86
2023/03/27 03:33:28;;;;;;;3.15;1.10;;;2.20;99.90;;;;;;6151012;23;20044;-86
2023/03/27 03:35:59;;;;;;;6.20;1.23;;;2.30;99.90;;;;;;6178343;23;20060;-86
2023/03/27 03:38:27;;;;;;;5.07;2.25;;;2.30;99.90;;;;;;6151283;23;20813;-86
2023/03/27 03:40:58;;;;;;;4.25;1.20;;;2.20;99.90;;;;;;6178276;23;20013;-86
2023/03/27 03:43:27;;;;;;;6.60;1.05;;;2.20;99.90;;;;;;6177217;23;20017;-86
2023/03/27 03:45:53;;;;;;;4.38;1.20;;;2.10;99.90;;;;;;6178099;23;20044;-86
2023/03/27 03:48:20;;;;;;;6.95;1.27;;;2.20;99.90;;;;;;6150651;23;20023;-86
2023/03/27 03:50:47;;;;;;;6.57;1.45;;;2.20;99.90;;;;;;6178209;23;20044;-86
2023/03/27 03:53:14;;;;;;;2.63;1.58;;;2.20;99.90;;;;;;6151237;23;20012;-87
2023/03/27 03:55:40;;;;;;;5.30;0.95;;;2.30;99.90;;;;;;6151929;23;20406;-87
2023/03/27 03:58:06;;;;;;;3.10;0.50;;;2.30;99.90;;;;;;6177266;23;20044;-88
2023/03/27 04:00:37;;;;;;;6.63;2.10;;;2.40;99.90;;;;;;6151545;23;20049;-87
2023/03/27 04:03:09;;;;;;;4.50;1.10;;;2.40;99.90;;;;;;6179775;23;20015;-86
2023/03/27 04:05:36;;;;;;;3.08;1.08;;;2.40;99.90;;;;;;6152621;23;20013;-87
2023/03/27 04:08:05;;;;;;;4.65;0.98;;;2.40;99.90;;;;;;6153179;23;20330;-87
2023/03/27 04:10:32;;;;;;;7.88;1.85;;;2.30;99.90;;;;;;6179554;23;20020;-87
2023/03/27 04:12:58;;;;;;;5.70;1.63;;;2.30;99.90;;;;;;6152685;23;20027;-87
2023/03/27 04:15:25;;;;;;;7.03;1.75;;;2.20;99.90;;;;;;6153009;23;20025;-86
2023/03/27 04:17:51;;;;;;;4.32;1.45;;;2.20;99.90;;;;;;6179565;23;20322;-87
2023/03/27 04:20:17;;;;;;;2.05;0.70;;;2.10;99.90;;;;;;6179399;23;20266;-86
2023/03/27 04:22:45;;;;;;;12.18;1.20;;;2.20;99.90;;;;;;6179992;23;20060;-86
2023/03/27 04:25:12;;;;;;;5.95;1.02;;;2.30;99.90;;;;;;6152696;23;20017;-87
2023/03/27 04:27:38;;;;;;;7.00;2.55;;;2.20;99.90;;;;;;6179635;23;20422;-86
2023/03/27 04:30:07;;;;;;;4.50;1.13;;;2.20;99.90;;;;;;6179557;23;20013;-86
2023/03/27 04:32:33;;;;;;;4.32;1.05;;;2.20;99.90;;;;;;6152068;23;20044;-86
2023/03/27 04:34:59;;;;;;;3.22;0.93;;;2.20;99.90;;;;;;6153119;23;20075;-87
2023/03/27 04:37:25;;;;;;;4.72;1.30;;;2.10;99.90;;;;;;6179061;23;20013;-88
2023/03/27 04:39:51;;;;;;;7.03;1.35;;;2.20;99.90;;;;;;6152960;23;20013;-87
2023/03/27 04:42:21;;;;;;;8.07;1.35;;;2.20;99.90;;;;;;6178550;23;20024;-87
2023/03/27 04:44:47;;;;;;;9.57;1.10;;;2.30;99.90;;;;;;6163267;23;20052;-87
2023/03/27 04:47:14;;;;;;;6.60;1.30;;;2.30;99.90;;;;;;6176356;23;20052;-86
2023/03/27 04:49:41;;;;;;;5.85;1.25;;;2.30;99.90;;;;;;6179491;23;20458;-87
2023/03/27 04:52:07;;;;;;;6.00;1.23;;;2.20;99.90;;;;;;6180059;23;20017;-86
2023/03/27 04:54:33;;;;;;;3.80;0.90;;;2.20;99.90;;;;;;6180470;23;20338;-87
2023/03/27 04:57:00;;;;;;;3.10;1.00;;;2.30;99.90;;;;;;6180336;23;20013;-87
2023/03/27 04:59:30;;;;;;;2.65;0.90;;;2.30;99.90;;;;;;6179273;23;20017;-87
2023/03/27 05:01:57;;;;;;;5.72;1.27;;;2.30;99.90;;;;;;6179874;23;20326;-87
2023/03/27 05:04:27;;;;;;;4.50;1.10;;;2.30;99.90;;;;;;6181300;23;20041;-87
2023/03/27 05:06:54;;;;;;;5.65;1.33;;;2.30;99.90;;;;;;6155160;23;20355;-86
2023/03/27 05:09:20;;;;;;;5.28;1.15;;;2.30;99.90;;;;;;6178631;23;20013;-87
2023/03/27 05:11:48;;;;;;;4.63;1.38;;;2.20;99.90;;;;;;6184620;23;20017;-87
2023/03/27 05:14:19;;;;;;;7.15;1.52;;;2.20;99.90;;;;;;6188384;23;20025;-87
2023/03/27 05:16:48;;;;;;;5.90;1.20;;;2.20;99.90;;;;;;6184792;23;20020;-87
2023/03/27 05:19:14;;;;;;;7.65;1.63;;;2.20;99.90;;;;;;6181709;23;20086;-85
2023/03/27 05:21:40;;;;;;;10.25;1.52;;;2.10;99.90;;;;;;6186148;23;20044;-87
2023/03/27 05:24:06;;;;;;;4.45;1.38;;;2.10;99.90;;;;;;6183287;23;20048;-87
2023/03/27 05:26:32;;;;;;;5.20;1.15;;;2.10;99.90;;;;;;6185254;23;20013;-90
2023/03/27 05:28:58;;;;;;;4.43;1.20;;;2.00;99.90;;;;;;6182644;23;20013;-87
2023/03/27 05:31:26;;;;;;;6.85;1.63;;;2.00;99.90;;;;;;6181006;23;20461;-88
2023/03/27 05:33:52;;;;;;;6.30;1.83;;;1.90;99.90;;;;;;6181550;23;20017;-86
2023/03/27 05:36:18;;;;;;;6.03;1.38;;;1.90;99.90;;;;;;6178777;23;20016;-86
2023/03/27 05:38:44;;;;;;;4.28;1.42;;;1.90;99.90;;;;;;6179942;23;20024;-86
2023/03/27 05:41:10;;;;;;;6.78;1.70;;;2.00;99.90;;;;;;6176774;23;20537;-85
2023/03/27 05:43:36;;;;;;;6.55;1.65;;;2.00;99.90;;;;;;6179684;23;20131;-85
2023/03/27 05:46:02;;;;;;;8.27;1.80;;;2.00;99.90;;;;;;6178008;23;20020;-85
2023/03/27 05:48:28;;;;;;;5.43;1.50;;;2.00;99.90;;;;;;6177979;23;20009;-86
2023/03/27 05:50:54;;;;;;;8.00;1.88;;;2.10;99.90;;;;;;6153088;23;20024;-86
2023/03/27 05:53:20;;;;;;;7.05;1.58;;;2.10;99.90;;;;;;6151933;23;20025;-85
2023/03/27 05:55:46;;;;;;;6.93;1.70;;;2.10;99.90;;;;;;6179680;23;20020;-86
2023/03/27 05:58:12;;;;;;;5.88;1.60;;;2.10;99.90;;;;;;6126714;23;20009;-85
2023/03/27 06:00:41;;;;;;;6.65;1.95;;;2.10;99.90;;;;;;6152026;23;20093;-85
2023/03/27 06:03:09;;;;;;;8.48;2.05;;;2.10;99.90;;;;;;6151266;23;20021;-87
2023/03/27 06:05:36;;;;;;;6.70;1.73;;;2.10;99.90;;;;;;6151469;23;20016;-84
2023/03/27 06:08:02;;;;;;;6.55;1.73;;;2.20;99.90;;;;;;6178534;23;20013;-84
2023/03/27 06:10:29;;;;;;;9.32;2.08;;;2.20;99.90;;;;;;6178732;23;20131;-87
2023/03/27 06:13:03;;;;;;;8.85;1.40;;;2.30;99.90;;;;;;6128476;23;20023;-85
2023/03/27 06:15:30;;;;;;;4.68;1.08;;;2.40;99.90;;;;;;6176993;23;20080;-83
2023/03/27 06:17:56;;;;;;;6.00;1.50;;;2.60;99.90;;;;;;6179013;23;20012;-87
2023/03/27 06:20:23;;;;;;;4.72;1.23;;;2.70;99.90;;;;;;6177471;23;20793;-84
2023/03/27 06:22:50;;;;;;;6.78;1.42;;;2.90;99.90;;;;;;6153043;23;20009;-87
2023/03/27 06:25:17;;;;;;;5.90;1.30;;;2.90;99.90;;;;;;6124618;23;20012;-84
2023/03/27 06:27:44;;;;;;;2.63;0.70;;;2.80;99.90;;;;;;6151459;23;20342;-86
2023/03/27 06:30:11;;;;;;;4.93;0.90;;;2.80;99.90;;;;;;6149861;23;20084;-87
2023/03/27 06:32:42;;;;;;;4.65;0.85;;;2.80;99.90;;;;;;6152428;23;20017;-85
2023/03/27 06:35:09;;;;;;;3.90;0.95;;;2.80;99.90;;;;;;6149887;23;20009;-84
2023/03/27 06:37:35;;;;;;;5.07;0.90;;;2.80;99.90;;;;;;6150822;23;20456;-82
2023/03/27 06:40:04;;;;;;;2.45;0.70;;;2.80;99.90;;;;;;6178786;23;20247;-83
2023/03/27 06:42:29;;;;;;;3.90;1.00;;;2.90;99.90;;;;;;6178023;23;20017;-83
2023/03/27 06:44:55;;;;;;;6.15;1.25;;;2.90;99.90;;;;;;6176393;23;20335;-84
2023/03/27 06:47:21;;;;;;;4.32;0.82;;;2.90;99.90;;;;;;6151076;23;20025;-85
2023/03/27 06:49:47;;;;;;;1.15;0.55;;;3.00;99.90;;;;;;6177418;23;20017;-84
2023/03/27 06:52:13;;;;;;;2.72;0.73;;;3.00;99.90;;;;;;6150519;23;20017;-84
2023/03/27 06:54:39;;;;;;;4.65;1.33;;;3.00;99.90;;;;;;6150086;23;20013;-83
2023/03/27 06:57:05;;;;;;;4.85;1.30;;;3.00;99.90;;;;;;6177518;23;20452;-83
2023/03/27 06:59:30;;;;;;;2.90;1.10;;;3.10;99.90;;;;;;6176793;23;20560;-83
2023/03/27 07:01:56;;;;;;;5.55;1.05;;;3.10;99.90;;;;;;6178589;23;20017;-84
2023/03/27 07:04:22;;;;;;;2.90;1.27;;;3.10;99.90;;;;;;6177507;23;20020;-83
2023/03/27 07:06:49;;;;;;;4.50;1.20;;;3.10;99.90;;;;;;6151170;23;20036;-83
2023/03/27 07:09:14;;;;;;;2.67;0.90;;;3.20;99.90;;;;;;6177131;23;20013;-83
2023/03/27 07:11:40;;;;;;;6.50;1.38;;;3.20;99.90;;;;;;6150671;23;20013;-84
2023/03/27 07:14:06;;;;;;;5.88;1.30;;;3.20;99.90;;;;;;6149600;23;20009;-82
2023/03/27 07:16:31;;;;;;;5.25;1.55;;;3.30;99.90;;;;;;6174925;23;20060;-82
2023/03/27 07:18:57;;;;;;;6.43;1.33;;;3.40;99.90;;;;;;6150833;23;20017;-83
2023/03/27 07:21:23;;;;;;;7.22;1.45;;;3.40;99.90;;;;;;6177338;23;20017;-83
2023/03/27 07:23:49;;;;;;;10.15;1.75;;;3.50;99.90;;;;;;6177617;23;20079;-83
2023/03/27 07:26:15;;;;;;;3.47;1.00;;;3.60;99.90;;;;;;6177156;23;20133;-83
2023/03/27 07:28:41;;;;;;;5.47;1.25;;;3.70;99.90;;;;;;6150736;23;20024;-82
2023/03/27 07:31:08;;;;;;;5.88;1.30;;;3.90;99.90;;;;;;6149770;23;20017;-82
2023/03/27 07:33:34;;;;;;;3.17;1.05;;;3.90;99.90;;;;;;6177619;23;20020;-82
2023/03/27 07:36:05;;;;;;;4.75;1.35;;;4.00;99.90;;;;;;6150984;23;20457;-83
2023/03/27 07:38:32;;;;;;;3.10;0.55;;;4.20;99.90;;;;;;6152035;23;20346;-83
2023/03/27 07:41:01;;;;;;;5.00;1.02;;;4.30;99.90;;;;;;6152403;23;20025;-82
2023/03/27 07:43:27;;;;;;;6.13;1.42;;;4.40;99.90;;;;;;6178988;23;20012;-83
2023/03/27 07:45:52;;;;;;;3.20;0.82;;;4.50;99.90;;;;;;6175522;23;20067;-85
2023/03/27 07:48:18;;;;;;;5.28;1.10;;;4.60;99.90;;;;;;6179015;23;20064;-83
2023/03/27 07:50:44;;;;;;;4.00;1.20;;;4.70;99.90;;;;;;6179789;23;20044;-82
2023/03/27 07:53:09;;;;;;;6.95;1.75;;;4.80;99.90;;;;;;6178728;23;20377;-83
2023/03/27 07:55:36;;;;;;;4.68;2.25;;;4.80;99.90;;;;;;6179228;23;20335;-84
2023/03/27 07:58:02;;;;;;;5.57;1.38;;;4.90;99.90;;;;;;6178922;23;20013;-83
2023/03/27 08:00:29;;;;;;;7.75;1.33;;;5.00;99.90;;;;;;6176947;23;20092;-85
2023/03/27 08:03:05;;;;;;;5.03;1.38;;;5.10;99.90;;;;;;6180520;23;20009;-83
2023/03/27 08:05:31;;;;;;;6.22;1.50;;;5.20;99.90;;;;;;6177881;23;20020;-83
2023/03/27 08:07:56;;;;;;;8.23;1.63;;;5.40;99.90;;;;;;6178925;23;20381;-83
2023/03/27 08:10:22;;;;;;;4.57;0.95;;;5.60;99.90;;;;;;6176294;23;20304;-84
2023/03/27 08:12:48;;;;;;;5.57;1.52;;;5.90;99.90;;;;;;6177500;23;20116;-84
2023/03/27 08:15:14;;;;;;;6.00;1.33;;;6.00;99.90;;;;;;6178030;23;20017;-85
2023/03/27 08:17:40;;;;;;;3.33;0.85;;;5.90;99.90;;;;;;6178077;23;20084;-84
2023/03/27 08:20:13;;;;;;;9.35;1.90;;;5.80;99.90;;;;;;6178734;23;20048;-83
2023/03/27 08:22:39;;;;;;;3.50;1.00;;;5.60;99.90;;;;;;6180365;23;20037;-81
2023/03/27 08:25:06;;;;;;;4.68;0.98;;;5.00;99.90;;;;;;6176261;23;20151;-82
2023/03/27 08:27:32;;;;;;;5.10;0.90;;;4.60;99.90;;;;;;6177044;23;20063;-84
2023/03/27 08:30:00;;;;;;;4.07;1.17;;;4.20;99.90;;;;;;6177914;23;20399;-84
2023/03/27 08:32:26;;;;;;;5.30;1.13;;;3.80;99.90;;;;;;6177187;23;20028;-84
2023/03/27 08:34:52;;;;;;;4.30;1.05;;;3.70;99.90;;;;;;6179919;23;20020;-83
2023/03/27 08:37:18;;;;;;;2.50;0.85;;;3.70;99.90;;;;;;6177773;23;20083;-84
2023/03/27 08:39:45;;;;;;;5.45;1.35;;;3.70;99.90;;;;;;6178757;23;20080;-82
2023/03/27 08:42:18;;;;;;;3.22;0.93;;;3.70;99.90;;;;;;6177588;23;20028;-82
2023/03/27 08:44:44;;;;;;;5.22;1.00;;;3.80;99.90;;;;;;6176570;23;20084;-82
2023/03/27 08:47:31;;;;;;;4.40;1.08;;;4.00;99.90;;;;;;6178495;23;20387;-81
2023/03/27 08:49:57;;;;;;;3.33;0.82;;;4.10;99.90;;;;;;6179373;23;20387;-80
2023/03/27 08:52:30;;;;;;;2.88;0.65;;;4.20;99.90;;;;;;6176890;23;20053;-80
2023/03/27 08:55:11;;;;;;;5.68;1.15;;;4.40;99.90;;;;;;6176431;23;20055;-80
2023/03/27 08:57:36;;;;;;;4.63;1.20;;;4.50;99.90;;;;;;6176824;23;20013;-80
2023/03/27 09:00:08;;;;;;;3.70;1.20;;;4.60;99.90;;;;;;6174762;23;20655;-81
2023/03/27 09:02:52;;;;;;;5.93;1.27;;;4.80;99.90;;;;;;6176497;23;20020;-81
2023/03/27 09:05:29;;;;;;;6.03;1.27;;;4.90;99.90;;;;;;6175064;23;20017;-81
2023/03/27 09:08:15;;;;;;;7.53;1.45;;;5.00;99.90;;;;;;6175633;23;20020;-81
2023/03/27 09:10:48;;;;;;;4.22;1.10;;;5.20;99.90;;;;;;6176628;23;20055;-81
2023/03/27 09:13:25;;;;;;;9.48;1.70;;;5.40;99.90;;;;;;6176888;23;20017;-81
2023/03/27 09:15:55;;;;;;;10.68;1.40;;;5.60;99.90;;;;;;6176058;23;20017;-80
2023/03/27 09:18:37;;;;;;;6.97;1.20;;;5.70;99.90;;;;;;6177647;23;20013;-82
2023/03/27 09:21:21;;;;;;;;;;;6.00;99.90;;;;;;6177735;23;20013;-81
2023/03/27 09:23:47;;;;;;;3.17;0.93;;;6.20;99.90;;;;;;6178199;23;19916;-80
2023/03/27 09:26:24;;;;;;;1.95;0.65;;;6.50;99.90;;;;;;6177863;23;20152;-81
2023/03/27 09:29:11;;;;;;;2.58;0.80;;;6.10;99.90;;;;;;6152038;23;20023;-82
2023/03/27 09:31:48;;;;;;;3.08;0.68;;;5.50;99.90;;;;;;6152301;23;20041;-86
2023/03/27 09:34:19;;;;;;;2.05;0.70;;;5.10;99.90;;;;;;6173754;23;20363;-86
2023/03/27 09:36:45;;;;;;;;;;;4.90;99.90;;;;;;6176338;23;20021;-82
2023/03/27 09:39:14;;;;;;;2.78;0.70;;;4.80;99.90;;;;;;6177274;23;19916;-82
2023/03/27 09:41:47;;;;;;;2.92;0.73;;;4.90;99.90;;;;;;6175956;23;20092;-82
2023/03/27 09:44:26;;;;;;;4.25;0.70;;;5.00;99.90;;;;;;6177583;23;20079;-82
2023/03/27 09:47:31;;;;;;;4.55;0.98;;;5.20;99.90;;;;;;6151732;23;20013;-83
2023/03/27 09:50:21;;;;;;;2.30;1.15;;;5.40;99.90;;;;;;6178844;23;20049;-83
2023/03/27 09:52:46;;;;;;;2.30;0.82;;;5.60;99.90;;;;;;6177638;23;20024;-82
2023/03/27 09:55:29;;;;;;;5.80;1.83;;;5.70;99.90;;;;;;6176182;23;20005;-87
2023/03/27 09:58:12;;;;;;;4.25;0.80;;;5.80;99.90;;;;;;6152022;23;20016;-91
2023/03/27 10:00:38;;;;;;;4.00;0.95;;;6.00;99.90;;;;;;6178460;23;20013;-86
2023/03/27 10:03:06;;;;;;;2.70;0.80;;;6.00;99.90;;;;;;6151680;23;20389;-82
2023/03/27 10:05:33;;;;;;;1.75;0.60;;;6.10;99.90;;;;;;6177649;23;20047;-82
2023/03/27 10:08:00;;;;;;;4.32;0.93;;;6.40;99.90;;;;;;6125676;23;20017;-82
2023/03/27 10:10:31;;;;;;;1.55;0.68;;;6.50;99.90;;;;;;6177460;23;20017;-82
2023/03/27 10:12:59;;;;;;;4.50;1.02;;;6.70;99.90;;;;;;6151363;23;20048;-82
2023/03/27 10:15:32;;;;;;;7.18;1.48;;;6.80;99.90;;;;;;6151312;23;20016;-82
2023/03/27 10:18:00;;;;;;;5.68;1.05;;;6.90;99.90;;;;;;6150596;23;20009;-81
2023/03/27 10:20:26;;;;;;;3.70;1.45;;;7.20;99.90;;;;;;6149502;23;20067;-80
2023/03/27 10:22:55;;;;;;;2.47;0.98;;;7.30;99.90;;;;;;6178532;23;20193;-82
2023/03/27 10:25:28;;;;;;;10.73;2.60;;;7.40;99.90;;;;;;6150626;23;21036;-81
2023/03/27 10:28:07;;;;;;;5.13;1.50;;;7.40;99.90;;;;;;6151398;23;20346;-85
2023/03/27 10:30:35;;;;;;;3.75;0.95;;;7.60;99.90;;;;;;6152406;23;20020;-87
2023/03/27 10:33:01;;;;;;;6.45;1.52;;;7.60;99.90;;;;;;6178872;23;20370;-83
2023/03/27 10:35:29;;;;;;;9.23;1.58;;;7.60;99.90;;;;;;6176538;23;20020;-85
2023/03/27 10:37:56;;;;;;;3.85;0.95;;;7.50;99.90;;;;;;6179163;23;20442;-84
2023/03/27 10:40:28;;;;;;;6.82;1.50;;;7.50;99.90;;;;;;6150651;23;20017;-82
2023/03/27 10:43:01;;;;;;;7.10;1.35;;;7.60;99.90;;;;;;6178895;23;20092;-82
2023/03/27 10:45:29;;;;;;;5.78;1.45;;;7.50;99.90;;;;;;6169896;23;20139;-83
2023/03/27 10:47:58;;;;;;;6.50;1.50;;;7.30;99.90;;;;;;6177746;23;20370;-85
2023/03/27 10:50:52;;;;;;;3.00;0.75;;;7.30;99.90;;;;;;6175129;23;20021;-83
2023/03/27 10:53:43;;;;;;;6.47;1.40;;;7.40;99.90;;;;;;6177397;23;20398;-85
2023/03/27 10:56:11;;;;;;;8.45;2.00;;;7.70;99.90;;;;;;6176690;23;20009;-84
2023/03/27 10:58:50;;;;;;;6.80;1.65;;;7.90;99.90;;;;;;6178477;23;20382;-84
2023/03/27 11:01:17;;;;;;;6.18;1.50;;;8.00;99.90;;;;;;6175747;23;20097;-85
2023/03/27 11:03:51;;;;;;;8.57;1.67;;;7.90;99.90;;;;;;6178479;23;20434;-86
2023/03/27 11:06:22;;;;;;;6.07;1.48;;;7.90;99.90;;;;;;6175908;23;20020;-85
2023/03/27 11:08:57;;;;;;;6.13;1.27;;;7.80;99.90;;;;;;6178999;23;20017;-86
2023/03/27 11:11:36;;;;;;;6.88;1.70;;;7.70;99.90;;;;;;6178178;23;20473;-89
2023/03/27 11:14:08;;;;;;;7.20;1.92;;;7.80;99.90;;;;;;6179118;23;20017;-86
2023/03/27 11:16:36;;;;;;;6.03;1.50;;;7.70;99.90;;;;;;6181583;23;20024;-88
2023/03/27 11:19:08;;;;;;;7.68;1.80;;;7.60;99.90;;;;;;6178704;23;20017;-88
2023/03/27 11:21:48;;;;;;;6.85;1.50;;;7.60;99.90;;;;;;6179999;23;20025;-90
2023/03/27 11:24:49;;;;;;;3.42;0.80;;;7.80;99.90;;;;;;6154490;23;20060;-94
2023/03/27 11:27:38;;;;;;;4.87;1.03;;;8.00;99.90;;;;;;6145413;23;20140;-88
2023/03/27 11:30:08;;;;;;;7.63;1.55;;;8.00;99.90;;;;;;6179935;23;20264;-89
2023/03/27 11:33:12;;;;;;;5.47;1.17;;;8.00;99.90;;;;;;6154670;23;20013;-89
2023/03/27 11:35:43;;;;;;;8.07;1.45;;;7.80;99.90;;;;;;6178710;23;20024;-89
2023/03/27 11:38:18;;;;;;;4.90;1.30;;;8.00;99.90;;;;;;6154407;23;20446;-91
2023/03/27 11:40:46;;;;;;;8.02;1.80;;;8.10;99.90;;;;;;6180026;23;20023;-89
2023/03/27 11:43:15;;;;;;;7.00;1.40;;;8.30;99.90;;;;;;6178454;23;20021;-86
2023/03/27 11:45:52;;;;;;;5.20;1.10;;;8.50;99.90;;;;;;6178290;23;20024;-87
2023/03/27 11:48:42;;;;;;;4.60;1.10;;;8.50;99.90;;;;;;6179384;23;20052;-84
2023/03/27 11:51:32;;;;;;;4.55;1.00;;;7.50;99.90;;;;;;6178438;23;20013;-88
2023/03/27 11:54:12;;;;;;;5.28;1.30;;;6.80;99.90;;;;;;6176704;23;20009;-89
2023/03/27 11:56:48;;;;;;;2.40;0.63;;;6.00;99.90;;;;;;6177520;23;20015;-85
2023/03/27 11:59:35;;;;;;;2.53;0.73;;;5.70;99.90;;;;;;6177975;23;20320;-82
2023/03/27 12:02:30;;;;;;;4.97;0.70;;;5.60;99.90;;;;;;6177549;23;20411;-86
2023/03/27 12:04:58;;;;;;;7.75;1.40;;;5.80;99.90;;;;;;6178247;23;20008;-85
2023/03/27 12:07:36;;;;;;;0.75;0.52;;;6.00;99.90;;;;;;6177319;23;20013;-83
2023/03/27 12:10:23;;;;;;;2.70;0.75;;;6.30;99.90;;;;;;6177707;23;20059;-83
2023/03/27 12:13:08;;;;;;;5.50;1.33;;;6.70;99.90;;;;;;6179876;23;20081;-84
2023/03/27 12:15:33;;;;;;;5.72;1.20;;;7.10;99.90;;;;;;6177549;23;20106;-84
2023/03/27 12:18:05;;;;;;;4.10;1.08;;;7.40;99.90;;;;;;6176937;23;20013;-81
2023/03/27 12:20:52;;;;;;;5.72;1.15;;;7.70;99.90;;;;;;6176948;23;20021;-81
2023/03/27 12:23:37;;;;;;;7.10;1.50;;;7.90;99.90;;;;;;6175528;23;20017;-81
2023/03/27 12:26:32;;;;;;;8.85;1.73;;;7.80;99.90;;;;;;6177049;23;20021;-79
2023/03/27 12:29:25;;;;;;;5.53;0.95;;;7.50;99.90;;;;;;6175187;23;20024;-82
2023/03/27 12:32:23;;;;;;;3.10;0.65;;;7.20;99.90;;;;;;6176230;23;20025;-83
2023/03/27 12:34:59;;;;;;;3.53;0.90;;;6.90;99.90;;;;;;6174453;23;20025;-82
2023/03/27 12:37:46;;;;;;;6.03;1.50;;;6.40;99.90;;;;;;6151396;23;20454;-81
2023/03/27 12:40:38;;;;;;;9.38;1.80;;;6.10;99.90;;;;;;6150738;23;20021;-84
2023/03/27 12:43:25;;;;;;;5.35;0.93;;;5.90;99.90;;;;;;6177471;23;20425;-81
2023/03/27 12:46:15;;;;;;;9.07;1.52;;;6.00;99.90;;;;;;6177183;23;20342;-81
2023/03/27 12:49:00;;;;;;;4.05;1.27;;;6.30;99.90;;;;;;6178860;23;20439;-81
2023/03/27 12:51:52;;;;;;;7.13;1.50;;;6.50;99.90;;;;;;6177938;23;20065;-82
2023/03/27 12:54:18;;;;;;;8.38;1.20;;;6.40;99.90;;;;;;6150884;23;20031;-81
2023/03/27 12:56:57;;;;;;;3.95;1.27;;;6.40;99.90;;;;;;6126790;23;20374;-84
2023/03/27 12:59:26;;;;;;;5.70;1.23;;;6.30;99.90;;;;;;6151342;23;20021;-88
2023/03/27 13:02:04;;;;;;;6.78;1.50;;;6.30;99.90;;;;;;6152199;23;20021;-86
2023/03/27 13:04:42;;;;;;;8.43;1.20;;;6.40;99.90;;;;;;6178288;23;20426;-83
2023/03/27 13:07:31;;;;;;;8.40;2.03;;;6.50;99.90;;;;;;6179425;23;20020;-84
2023/03/27 13:10:24;;;;;;;2.20;0.75;;;6.60;99.90;;;;;;6178119;23;20035;-83
2023/03/27 13:13:24;;;;;;;8.63;2.17;;;6.70;99.90;;;;;;6152813;23;20068;-84
2023/03/27 13:16:01;;;;;;;3.83;1.00;;;6.70;99.90;;;;;;6178520;23;20050;-87
2023/03/27 13:18:26;;;;;;;6.13;0.70;;;6.70;99.90;;;;;;6151904;23;20052;-82
2023/03/27 13:21:04;;;;;;;6.45;1.40;;;6.90;99.90;;;;;;6178828;23;20025;-85
2023/03/27 13:24:01;;;;;;;5.65;1.00;;;7.10;99.90;;;;;;6178960;23;20378;-85